createdAt,value
2022-12-16T00:01:51.156Z,99942.73
2022-12-16T00:04:24.247Z,99942.05
2022-12-16T00:06:56.539Z,99942.25
2022-12-16T00:09:29.087Z,99943.59
2022-12-16T00:12:01.294Z,99943.66
2022-12-16T00:14:33.739Z,99944.52
2022-12-16T00:17:05.882Z,99940.88
2022-12-16T00:19:38.075Z,99942.58
2022-12-16T00:22:10.295Z,99943.70
2022-12-16T00:24:42.515Z,99950.17
2022-12-16T00:27:14.581Z,99952.55
2022-12-16T00:29:46.749Z,99954.49
2022-12-16T00:32:18.922Z,99952.64
2022-12-16T00:34:51.086Z,99958.52
2022-12-16T00:37:24.073Z,99958.66
2022-12-16T00:39:56.265Z,99959.87
2022-12-16T00:42:28.409Z,99959.56
2022-12-16T00:45:00.656Z,99963.08
2022-12-16T00:47:33.134Z,99963.31
2022-12-16T00:50:05.988Z,99974.02
2022-12-16T00:52:38.158Z,99977.17
2022-12-16T00:55:12.118Z,99979.17
2022-12-16T00:57:44.544Z,99973.91
2022-12-16T01:00:19.426Z,99978.20
2022-12-16T01:02:53.654Z,99979.71
2022-12-16T01:05:27.122Z,99980.61
2022-12-16T01:07:59.693Z,99981.23
2022-12-16T01:10:31.862Z,99979.23
2022-12-16T01:13:04.027Z,99980.20
2022-12-16T01:15:36.248Z,99988.15
2022-12-16T01:18:08.467Z,99985.24
2022-12-16T01:20:40.638Z,99979.04
2022-12-16T01:23:12.906Z,99985.27
2022-12-16T01:25:45.022Z,99984.80
2022-12-16T01:28:17.251Z,99987.16
2022-12-16T01:30:49.514Z,99987.84
2022-12-16T01:33:21.630Z,99991.98
2022-12-16T01:36:01.297Z,100001.05
2022-12-16T01:38:34.157Z,100004.75
2022-12-16T01:41:07.073Z,100007.45
2022-12-16T01:43:41.158Z,100009.80
2022-12-16T01:46:21.600Z,100008.36
2022-12-16T01:48:59.728Z,100003.77
2022-12-16T01:51:36.762Z,100007.14
2022-12-16T01:54:13.728Z,99999.38
2022-12-16T01:56:52.950Z,100000.88
2022-12-16T01:59:26.832Z,99998.42
2022-12-16T02:02:00.732Z,99995.91
2022-12-16T02:04:33.115Z,99994.46
2022-12-16T02:07:05.338Z,99989.28
2022-12-16T02:09:37.477Z,99990.23
2022-12-16T02:12:26.771Z,99987.80
2022-12-16T02:15:24.718Z,99985.43
2022-12-16T02:18:05.770Z,99984.95
2022-12-16T02:21:13.578Z,99978.95
2022-12-16T02:24:29.406Z,99972.96
2022-12-16T02:27:36.171Z,99967.45
2022-12-16T02:30:28.200Z,99967.07
2022-12-16T02:33:14.694Z,99964.95
2022-12-16T02:35:53.893Z,99963.48
2022-12-16T02:38:39.858Z,99966.29
2022-12-16T02:41:18.939Z,99963.14
2022-12-16T02:43:58.302Z,99970.14
2022-12-16T02:46:34.164Z,99977.92
2022-12-16T02:49:10.753Z,99977.37
2022-12-16T02:51:43.560Z,99971.02
2022-12-16T02:54:16.317Z,99971.14
2022-12-16T02:56:59.802Z,99970.81
2022-12-16T02:59:42.005Z,99968.61
2022-12-16T03:02:20.882Z,99969.39
2022-12-16T03:04:57.682Z,99965.71
2022-12-16T03:07:33.308Z,99963.96
2022-12-16T03:10:10.190Z,99963.52
2022-12-16T03:12:45.144Z,99960.75
2022-12-16T03:15:20.435Z,99959.89
2022-12-16T03:17:54.970Z,99959.55
2022-12-16T03:20:32.554Z,99957.78
2022-12-16T03:23:08.025Z,99958.42
2022-12-16T03:25:44.345Z,99948.13
2022-12-16T03:28:29.956Z,99944.36
2022-12-16T03:31:09.799Z,99938.84
2022-12-16T03:33:49.262Z,99937.31
2022-12-16T03:36:26.345Z,99940.02
2022-12-16T03:39:00.535Z,99934.20
2022-12-16T03:41:33.905Z,99928.50
2022-12-16T03:44:06.407Z,99923.89
2022-12-16T03:46:38.687Z,99924.87
2022-12-16T03:49:10.903Z,99923.77
2022-12-16T03:51:43.142Z,99924.02
2022-12-16T03:54:15.464Z,99921.22
2022-12-16T03:56:48.660Z,99914.66
2022-12-16T03:59:21.364Z,99911.46
2022-12-16T04:01:53.863Z,99911.08
2022-12-16T04:04:26.826Z,99907.20
2022-12-16T04:07:16.991Z,99897.73
2022-12-16T04:09:50.051Z,99897.39
2022-12-16T04:12:40.706Z,99901.33
2022-12-16T04:15:33.849Z,99900.83
2022-12-16T04:18:23.319Z,99902.63
2022-12-16T04:21:15.287Z,99907.55
2022-12-16T04:24:10.276Z,99903.80
2022-12-16T04:26:56.552Z,99901.23
2022-12-16T04:29:28.770Z,99908.33
2022-12-16T04:32:01.448Z,99906.07
2022-12-16T04:34:33.565Z,99902.70
2022-12-16T04:37:38.501Z,99900.02
2022-12-16T04:40:30.309Z,99899.55
2022-12-16T04:43:25.565Z,99900.58
2022-12-16T04:46:15.614Z,99907.88
2022-12-16T04:49:13.806Z,99905.73
2022-12-16T04:52:03.766Z,99911.27
2022-12-16T04:54:53.649Z,99920.08
2022-12-16T04:57:43.713Z,99915.02
2022-12-16T05:00:34.375Z,99913.74
2022-12-16T05:03:32.935Z,99908.77
2022-12-16T05:06:23.063Z,99907.52
2022-12-16T05:09:12.797Z,99912.77
2022-12-16T05:12:02.679Z,99911.59
2022-12-16T05:14:52.412Z,99911.55
2022-12-16T05:17:42.498Z,99913.02
2022-12-16T05:20:32.333Z,99915.69
2022-12-16T05:23:22.062Z,99914.48
2022-12-16T05:26:11.868Z,99901.98
2022-12-16T05:29:01.834Z,99905.70
2022-12-16T05:31:51.720Z,99903.20
2022-12-16T05:34:41.524Z,99904.59
2022-12-16T05:37:31.377Z,99906.73
2022-12-16T05:40:21.131Z,99904.04
2022-12-16T05:43:16.364Z,99899.92
2022-12-16T05:46:06.869Z,99898.77
2022-12-16T05:48:56.953Z,99896.10
2022-12-16T05:51:46.503Z,99894.91
2022-12-16T05:54:36.014Z,99895.13
2022-12-16T05:57:25.492Z,99897.06
2022-12-16T06:00:15.282Z,99907.29
2022-12-16T06:03:05.297Z,99915.33
2022-12-16T06:05:55.640Z,99921.09
2022-12-16T06:08:45.748Z,99919.85
2022-12-16T06:11:35.382Z,99920.61
2022-12-16T06:14:25.035Z,99920.45
2022-12-16T06:17:14.739Z,99923.73
2022-12-16T06:20:06.594Z,99928.23
2022-12-16T06:22:56.658Z,99937.02
2022-12-16T06:25:46.657Z,99951.31
2022-12-16T06:28:36.757Z,99960.86
2022-12-16T06:31:27.053Z,99967.42
2022-12-16T06:34:16.782Z,99971.17
2022-12-16T06:37:06.793Z,99971.46
2022-12-16T06:39:56.415Z,99971.23
2022-12-16T06:42:46.381Z,99970.30
2022-12-16T06:45:36.503Z,99971.04
2022-12-16T06:48:27.223Z,99975.42
2022-12-16T06:51:17.133Z,99975.16
2022-12-16T06:54:06.860Z,99976.43
2022-12-16T06:56:56.566Z,99984.02
2022-12-16T06:59:46.270Z,99984.89
2022-12-16T07:02:36.031Z,99988.13
2022-12-16T07:05:26.444Z,99994.94
2022-12-16T07:08:16.105Z,99998.50
2022-12-16T07:11:16.133Z,99999.37
2022-12-16T07:14:06.900Z,100005.70
2022-12-16T07:16:58.809Z,100009.73
2022-12-16T07:19:54.093Z,100013.29
2022-12-16T07:22:44.308Z,100018.71
2022-12-16T07:25:33.885Z,100023.16
2022-12-16T07:28:23.541Z,100026.05
2022-12-16T07:31:13.293Z,100030.59
2022-12-16T07:34:03.331Z,100028.54
2022-12-16T07:36:53.163Z,100030.73
2022-12-16T07:39:42.854Z,100034.27
2022-12-16T07:42:43.913Z,100039.08
2022-12-16T07:45:33.520Z,100040.50
2022-12-16T07:48:23.603Z,100039.49
2022-12-16T07:51:13.334Z,100038.83
2022-12-16T07:54:03.348Z,100038.73
2022-12-16T07:56:53.070Z,100044.42
2022-12-16T07:59:48.488Z,100047.63
2022-12-16T08:02:38.821Z,100044.59
2022-12-16T08:05:30.765Z,100042.75
2022-12-16T08:08:20.750Z,100043.95
2022-12-16T08:11:10.892Z,100045.14
2022-12-16T08:14:00.697Z,100033.92
2022-12-16T08:16:50.411Z,100030.56
2022-12-16T08:19:41.133Z,100034.66
2022-12-16T08:22:29.914Z,100041.67
2022-12-16T08:25:19.875Z,100048.10
2022-12-16T08:28:14.821Z,100048.35
2022-12-16T08:31:08.030Z,100045.35
2022-12-16T08:33:58.643Z,100049.45
2022-12-16T08:36:48.264Z,100050.73
2022-12-16T08:39:38.005Z,100048.83
2022-12-16T08:42:27.804Z,100051.53
2022-12-16T08:45:17.918Z,100046.72
2022-12-16T08:48:07.955Z,100052.38
2022-12-16T08:51:09.612Z,100049.58
2022-12-16T08:54:07.843Z,100047.80
2022-12-16T08:56:57.703Z,100043.52
2022-12-16T08:59:47.482Z,100041.67
2022-12-16T09:02:37.439Z,100039.50
2022-12-16T09:05:29.041Z,100035.52
2022-12-16T09:08:20.792Z,100035.59
2022-12-16T09:11:10.651Z,100031.17
2022-12-16T09:14:00.330Z,100027.26
2022-12-16T09:16:50.138Z,100021.92
2022-12-16T09:19:40.175Z,100017.58
2022-12-16T09:22:29.956Z,100013.98
2022-12-16T09:25:19.673Z,100011.56
2022-12-16T09:28:10.800Z,100006.94
2022-12-16T09:31:00.635Z,99998.91
2022-12-16T09:33:50.497Z,99995.64
2022-12-16T09:36:40.318Z,99986.83
2022-12-16T09:39:30.177Z,99980.04
2022-12-16T09:42:26.001Z,99968.81
2022-12-16T09:45:15.834Z,99967.18
2022-12-16T09:48:15.804Z,99963.29
2022-12-16T09:51:06.301Z,99960.07
2022-12-16T09:53:57.951Z,99959.59
2022-12-16T09:56:50.422Z,99958.70
2022-12-16T09:59:45.580Z,99950.84
2022-12-16T10:02:37.659Z,99934.95
2022-12-16T10:05:33.690Z,99929.98
2022-12-16T10:08:29.053Z,99918.91
2022-12-16T10:11:26.287Z,99919.84
2022-12-16T10:14:24.591Z,99921.56
2022-12-16T10:17:22.180Z,99929.17
2022-12-16T10:20:32.260Z,99932.43
2022-12-16T10:23:32.214Z,99928.55
2022-12-16T10:26:27.113Z,99924.05
2022-12-16T10:29:23.953Z,99919.71
2022-12-16T10:32:12.685Z,99917.30
2022-12-16T10:35:03.212Z,99920.30
2022-12-16T10:37:55.551Z,99928.94
2022-12-16T10:40:49.317Z,99933.42
2022-12-16T10:43:47.760Z,99942.60
2022-12-16T10:46:43.973Z,99938.52
2022-12-16T10:49:35.317Z,99943.63
2022-12-16T10:52:25.862Z,99943.14
2022-12-16T10:55:22.759Z,99941.77
2022-12-16T10:58:35.488Z,99944.09
2022-12-16T11:01:41.569Z,99941.70
2022-12-16T11:04:55.912Z,99940.63
2022-12-16T11:07:53.025Z,99944.30
2022-12-16T11:10:50.485Z,99942.94
2022-12-16T11:13:47.079Z,99938.20
2022-12-16T11:16:38.170Z,99945.45
2022-12-16T11:19:39.258Z,99945.02
2022-12-16T11:22:34.263Z,99946.16
2022-12-16T11:25:37.048Z,99948.46
2022-12-16T11:28:33.154Z,99954.75
2022-12-16T11:31:26.940Z,99954.77
2022-12-16T11:34:19.448Z,99955.09
2022-12-16T11:37:11.200Z,99959.79
2022-12-16T11:40:03.978Z,99963.10
2022-12-16T11:42:54.685Z,99962.17
2022-12-16T11:45:46.254Z,99968.19
2022-12-16T11:48:52.496Z,99971.85
2022-12-16T11:51:43.992Z,99973.05
2022-12-16T11:54:41.148Z,99975.09
2022-12-16T11:57:38.557Z,99981.45
2022-12-16T12:00:37.042Z,99984.79
2022-12-16T12:03:31.394Z,99985.20
2022-12-16T12:06:26.972Z,99988.98
2022-12-16T12:09:23.153Z,99989.10
2022-12-16T12:12:18.102Z,99989.70
2022-12-16T12:15:11.807Z,99988.45
2022-12-16T12:18:06.884Z,99985.59
2022-12-16T12:21:05.552Z,99977.20
2022-12-16T12:24:08.593Z,99969.26
2022-12-16T12:27:09.996Z,99967.88
2022-12-16T12:30:16.018Z,99964.63
2022-12-16T12:33:12.290Z,99964.49
2022-12-16T12:36:08.933Z,99966.24
2022-12-16T12:39:09.208Z,99964.48
2022-12-16T12:42:14.993Z,99965.81
2022-12-16T12:45:17.343Z,99973.28
2022-12-16T12:48:13.246Z,99976.48
2022-12-16T12:51:05.172Z,99979.30
2022-12-16T12:54:03.557Z,99981.89
2022-12-16T12:57:03.448Z,99982.17
2022-12-16T13:00:06.133Z,99988.26
2022-12-16T13:03:05.500Z,99992.15
2022-12-16T13:05:58.393Z,99995.89
2022-12-16T13:09:04.155Z,99992.58
2022-12-16T13:11:54.422Z,99990.84
2022-12-16T13:15:12.902Z,99990.19
2022-12-16T13:18:38.757Z,99999.06
2022-12-16T13:21:59.274Z,99998.88
2022-12-16T13:25:08.363Z,99997.10
2022-12-16T13:28:14.311Z,99997.02
2022-12-16T13:31:25.300Z,99997.37
2022-12-16T13:34:25.882Z,100006.36
2022-12-16T13:37:25.759Z,100009.20
2022-12-16T13:40:25.568Z,100014.64
2022-12-16T13:43:20.551Z,100017.91
2022-12-16T13:46:34.052Z,100019.77
2022-12-16T13:52:50.948Z,100020.44
2022-12-16T13:55:46.293Z,100019.66
2022-12-16T13:58:49.874Z,100014.93
2022-12-16T14:01:48.546Z,100009.99
2022-12-16T14:04:44.630Z,100005.83
2022-12-16T14:07:37.074Z,100006.05
2022-12-16T14:10:41.809Z,100008.33
2022-12-16T14:13:38.447Z,100011.80
2022-12-16T14:16:35.047Z,100015.98
2022-12-16T14:19:41.025Z,100023.98
2022-12-16T14:22:48.010Z,100024.88
2022-12-16T14:25:40.967Z,100030.12
2022-12-16T14:28:42.112Z,100028.80
2022-12-16T14:31:38.040Z,100032.84
2022-12-16T14:34:34.835Z,100032.52
2022-12-16T14:37:33.706Z,100035.28
2022-12-16T14:40:36.772Z,100044.84
2022-12-16T14:43:33.551Z,100045.20
2022-12-16T14:46:24.083Z,100049.85
2022-12-16T14:49:15.000Z,100053.71
2022-12-16T14:52:07.237Z,100059.14
2022-12-16T14:54:58.963Z,100064.80
2022-12-16T14:57:50.050Z,100065.77
2022-12-16T15:00:41.805Z,100075.26
2022-12-16T15:03:48.834Z,100079.51
2022-12-16T15:06:45.390Z,100080.57
2022-12-16T15:09:43.018Z,100081.08
2022-12-16T15:12:34.595Z,100080.86
2022-12-16T15:15:32.054Z,100083.91
2022-12-16T15:18:22.910Z,100084.25
2022-12-16T15:21:14.201Z,100079.16
2022-12-16T15:24:05.266Z,100076.09
2022-12-16T15:27:10.351Z,100080.89
2022-12-16T15:30:01.634Z,100084.98
2022-12-16T15:32:53.702Z,100089.60
2022-12-16T15:35:50.883Z,100089.10
2022-12-16T15:38:47.757Z,100086.23
2022-12-16T15:41:42.938Z,100086.73
2022-12-16T15:44:37.789Z,100087.75
2022-12-16T15:47:44.211Z,100083.26
2022-12-16T15:50:35.614Z,100088.81
2022-12-16T15:53:49.416Z,100089.30
2022-12-16T15:56:47.296Z,100087.13
2022-12-16T15:59:48.929Z,100090.11
2022-12-16T16:02:42.265Z,100098.13
2022-12-16T16:05:37.317Z,100097.79
2022-12-16T16:08:28.975Z,100096.89
2022-12-16T16:11:18.858Z,100098.69
2022-12-16T16:14:13.987Z,100106.14
2022-12-16T16:17:04.191Z,100111.35
2022-12-16T16:19:55.140Z,100123.41
2022-12-16T16:22:48.657Z,100122.88
2022-12-16T16:25:38.310Z,100115.03
2022-12-16T16:28:28.913Z,100113.45
2022-12-16T16:31:18.824Z,100112.13
2022-12-16T16:34:09.114Z,100113.83
2022-12-16T16:36:59.048Z,100119.77
2022-12-16T16:39:48.934Z,100122.40
2022-12-16T16:42:38.818Z,100125.80
2022-12-16T16:45:46.057Z,100127.46
2022-12-16T16:48:37.095Z,100123.09
2022-12-16T16:51:27.184Z,100121.35
2022-12-16T16:54:17.243Z,100125.74
2022-12-16T16:57:07.002Z,100129.37
2022-12-16T16:59:56.810Z,100129.98
2022-12-16T17:02:46.985Z,100137.35
2022-12-16T17:05:37.700Z,100141.23
2022-12-16T17:08:27.532Z,100143.65
2022-12-16T17:11:17.304Z,100144.73
2022-12-16T17:14:07.173Z,100145.31
2022-12-16T17:17:02.097Z,100148.80
2022-12-16T17:19:52.212Z,100152.61
2022-12-16T17:22:41.993Z,100153.08
2022-12-16T17:25:31.979Z,100153.64
2022-12-16T17:28:21.992Z,100153.13
2022-12-16T17:31:11.936Z,100152.33
2022-12-16T17:34:01.698Z,100155.96
2022-12-16T17:36:51.540Z,100155.14
2022-12-16T17:39:41.294Z,100161.39
2022-12-16T17:42:31.025Z,100158.85
2022-12-16T17:45:20.787Z,100161.71
2022-12-16T17:48:15.811Z,100158.89
2022-12-16T17:51:05.821Z,100157.89
2022-12-16T17:54:00.424Z,100158.59
2022-12-16T17:56:51.912Z,100158.73
2022-12-16T17:59:41.744Z,100157.02
2022-12-16T18:02:34.379Z,100157.58
2022-12-16T18:05:24.635Z,100164.21
2022-12-16T18:08:14.672Z,100164.31
2022-12-16T18:11:04.606Z,100163.11
2022-12-16T18:13:54.337Z,100168.32
2022-12-16T18:16:44.231Z,100168.10
2022-12-16T18:19:35.195Z,100171.34
2022-12-16T18:22:27.242Z,100173.70
2022-12-16T18:25:17.430Z,100178.13
2022-12-16T18:28:07.416Z,100169.61
2022-12-16T18:30:58.222Z,100174.47
2022-12-16T18:34:02.927Z,100170.91
2022-12-16T18:36:52.709Z,100174.13
2022-12-16T18:39:42.464Z,100176.13
2022-12-16T18:42:32.502Z,100177.95
2022-12-16T18:45:22.206Z,100180.61
2022-12-16T18:48:12.115Z,100176.18
2022-12-16T18:51:01.870Z,100178.91
2022-12-16T18:53:51.676Z,100173.83
2022-12-16T18:56:41.486Z,100172.73
2022-12-16T18:59:31.217Z,100178.89
2022-12-16T19:02:21.120Z,100176.73
2022-12-16T19:05:11.111Z,100174.60
2022-12-16T19:08:01.153Z,100177.55
2022-12-16T19:10:51.260Z,100184.09
2022-12-16T19:13:41.120Z,100180.49
2022-12-16T19:16:31.301Z,100187.77
2022-12-16T19:19:21.714Z,100195.73
2022-12-16T19:22:11.464Z,100200.23
2022-12-16T19:25:01.268Z,100204.81
2022-12-16T19:28:05.872Z,100207.16
2022-12-16T19:30:56.423Z,100205.60
2022-12-16T19:33:46.329Z,100205.52
2022-12-16T19:36:36.392Z,100204.41
2022-12-16T19:39:26.637Z,100204.18
2022-12-16T19:42:16.444Z,100213.89
2022-12-16T19:45:06.300Z,100219.63
2022-12-16T19:47:55.979Z,100221.20
2022-12-16T19:50:46.348Z,100223.52
2022-12-16T19:53:36.130Z,100228.95
2022-12-16T19:56:26.832Z,100231.46
2022-12-16T19:59:16.638Z,100240.80
2022-12-16T20:02:06.817Z,100250.62
2022-12-16T20:04:57.150Z,100253.75
2022-12-16T20:07:47.032Z,100254.32
2022-12-16T20:10:36.204Z,100253.79
2022-12-16T20:13:30.410Z,100256.05
2022-12-16T20:16:24.465Z,100255.84
2022-12-16T20:19:14.709Z,100258.77
2022-12-16T20:25:14.731Z,100269.27
2022-12-16T20:28:04.608Z,100271.67
2022-12-16T20:30:56.281Z,100278.30
2022-12-16T20:33:46.693Z,100277.70
2022-12-16T20:36:36.947Z,100273.30
2022-12-16T20:39:28.495Z,100271.39
2022-12-16T20:42:18.505Z,100280.14
2022-12-16T20:45:08.262Z,100282.11
2022-12-16T20:47:59.323Z,100289.84
2022-12-16T20:50:48.904Z,100295.56
2022-12-16T20:53:39.223Z,100294.66
2022-12-16T20:56:29.661Z,100301.64
2022-12-16T20:59:20.930Z,100304.52
2022-12-16T21:02:31.730Z,100303.89
2022-12-16T21:05:21.008Z,100308.91
2022-12-16T21:08:10.780Z,100320.06
2022-12-16T21:11:00.510Z,100320.32
2022-12-16T21:13:50.507Z,100328.48
2022-12-16T21:16:40.560Z,100330.34
2022-12-16T21:19:41.809Z,100332.61
2022-12-16T21:22:32.028Z,100334.78
2022-12-16T21:28:33.195Z,100332.96
2022-12-16T21:31:23.361Z,100331.92
2022-12-16T21:34:14.783Z,100326.23
2022-12-16T21:37:04.485Z,100327.87
2022-12-16T21:39:54.137Z,100327.64
2022-12-16T21:45:50.852Z,100328.55
2022-12-16T21:48:41.435Z,100325.55
2022-12-16T21:51:30.843Z,100325.93
2022-12-16T21:54:21.042Z,100327.51
2022-12-16T21:57:11.129Z,100331.45
2022-12-16T22:00:00.969Z,100330.39
2022-12-16T22:02:50.718Z,100333.02
2022-12-16T22:05:41.445Z,100341.11
2022-12-16T22:08:31.304Z,100344.99
2022-12-16T22:11:29.126Z,100348.61
2022-12-16T22:14:27.531Z,100351.31
2022-12-16T22:17:31.796Z,100357.50
2022-12-16T22:20:21.611Z,100360.17
2022-12-16T22:23:07.589Z,100368.31
2022-12-16T22:25:57.563Z,100367.68
2022-12-16T22:28:47.906Z,100371.55
2022-12-16T22:31:37.976Z,100374.74
2022-12-16T22:34:28.031Z,100374.75
2022-12-16T22:37:18.031Z,100376.72
2022-12-16T22:40:22.469Z,100373.65
2022-12-16T22:43:12.505Z,100374.46
2022-12-16T22:46:02.357Z,100381.06
2022-12-16T22:48:52.691Z,100380.70
2022-12-16T22:51:46.151Z,100383.59
2022-12-16T22:54:36.225Z,100389.13
2022-12-16T22:57:26.072Z,100391.20
2022-12-16T23:00:15.865Z,100395.84
2022-12-16T23:03:05.843Z,100393.14
2022-12-16T23:05:55.952Z,100390.80
2022-12-16T23:08:46.578Z,100392.76
2022-12-16T23:11:41.740Z,100396.20
2022-12-16T23:14:31.568Z,100397.77
2022-12-16T23:17:21.375Z,100397.66
2022-12-16T23:20:11.131Z,100400.16
2022-12-16T23:23:01.168Z,100405.60
2022-12-16T23:25:50.949Z,100403.48
2022-12-16T23:28:40.960Z,100401.75
2022-12-16T23:31:31.200Z,100397.11
2022-12-16T23:34:21.240Z,100398.34
2022-12-16T23:37:11.457Z,100400.60
2022-12-16T23:40:01.164Z,100406.56
2022-12-16T23:42:50.915Z,100416.75
2022-12-16T23:45:45.639Z,100417.20
2022-12-16T23:48:35.420Z,100415.59
2022-12-16T23:51:25.661Z,100413.85
2022-12-16T23:54:15.417Z,100415.58
2022-12-16T23:57:05.326Z,100419.83
2022-12-16T23:59:55.138Z,100424.92
